createdAt,value
2019-01-17T00:01:50.630Z,3.70
2019-01-17T00:13:36.365Z,3.70
2019-01-17T00:19:08.283Z,3.80
2019-01-17T00:24:33.966Z,3.80
2019-01-17T00:33:11.031Z,3.90
2019-01-17T00:36:11.166Z,4.00
2019-01-17T00:39:18.363Z,4.00
2019-01-17T00:45:09.687Z,4.00
2019-01-17T00:54:26.371Z,3.90
2019-01-17T00:57:24.862Z,3.90
2019-01-17T01:00:09.284Z,3.90
2019-01-17T01:06:21.693Z,3.80
2019-01-17T01:09:09.676Z,3.90
2019-01-17T01:11:57.785Z,3.90
2019-01-17T01:15:01.385Z,3.90
2019-01-17T01:17:42.154Z,3.70
2019-01-17T01:20:42.406Z,3.90
2019-01-17T01:23:30.435Z,3.90
2019-01-17T01:29:34.584Z,3.80
2019-01-17T01:32:18.932Z,3.90
2019-01-17T01:35:27.268Z,3.80
2019-01-17T01:38:30.197Z,3.70
2019-01-17T01:41:26.275Z,3.70
2019-01-17T01:44:10.120Z,3.60
2019-01-17T01:46:58.091Z,3.60
2019-01-17T01:49:46.138Z,3.50
2019-01-17T01:52:34.074Z,3.50
2019-01-17T01:55:03.113Z,3.50
2019-01-17T01:57:51.256Z,3.50
2019-01-17T02:00:39.407Z,3.50
2019-01-17T02:03:24.642Z,3.60
2019-01-17T02:05:53.711Z,3.70
2019-01-17T02:08:41.938Z,3.60
2019-01-17T02:11:23.105Z,3.70
2019-01-17T02:16:54.850Z,3.70
2019-01-17T02:22:26.487Z,3.60
2019-01-17T02:25:06.960Z,3.60
2019-01-17T02:27:37.011Z,3.60
2019-01-17T02:30:25.212Z,3.70
2019-01-17T02:33:13.467Z,3.60
2019-01-17T02:35:54.596Z,3.60
2019-01-17T02:38:35.171Z,3.60
2019-01-17T02:41:23.307Z,3.60
2019-01-17T02:44:05.257Z,3.60
2019-01-17T02:46:51.594Z,3.60
2019-01-17T02:49:35.390Z,3.60
2019-01-17T02:52:16.562Z,3.40
2019-01-17T02:57:39.356Z,3.50
2019-01-17T03:00:12.049Z,3.50
2019-01-17T03:03:02.898Z,3.50
2019-01-17T03:05:51.134Z,3.50
2019-01-17T03:08:33.831Z,3.40
2019-01-17T03:11:15.009Z,3.40
2019-01-17T03:13:55.911Z,3.40
2019-01-17T03:16:37.092Z,3.50
2019-01-17T03:19:19.542Z,3.40
2019-01-17T03:22:08.061Z,3.50
2019-01-17T03:24:56.908Z,3.50
2019-01-17T03:27:38.264Z,3.50
2019-01-17T03:33:06.732Z,3.50
2019-01-17T03:38:38.188Z,3.60
2019-01-17T03:41:21.352Z,3.50
2019-01-17T03:44:05.547Z,3.50
2019-01-17T03:46:34.547Z,3.50
2019-01-17T03:49:23.346Z,3.30
2019-01-17T03:52:11.747Z,3.50
2019-01-17T03:54:55.980Z,3.50
2019-01-17T04:00:55.152Z,3.50
2019-01-17T04:06:41.583Z,3.50
2019-01-17T04:09:23.681Z,3.40
2019-01-17T04:12:16.321Z,3.30
2019-01-17T04:17:29.592Z,3.40
2019-01-17T04:20:20.363Z,3.40
2019-01-17T04:23:26.705Z,3.40
2019-01-17T04:25:54.674Z,3.50
2019-01-17T04:28:35.183Z,3.40
2019-01-17T04:31:28.669Z,3.40
2019-01-17T04:34:10.007Z,3.40
2019-01-17T04:36:51.863Z,3.40
2019-01-17T04:39:32.803Z,3.40
2019-01-17T04:42:13.591Z,3.40
2019-01-17T04:45:02.441Z,3.40
2019-01-17T04:47:46.818Z,3.40
2019-01-17T04:50:28.355Z,3.50
2019-01-17T04:53:09.582Z,3.40
2019-01-17T04:55:38.704Z,3.40
2019-01-17T04:58:27.715Z,3.40
2019-01-17T05:01:16.274Z,3.40
2019-01-17T05:03:57.644Z,3.40
2019-01-17T05:06:41.467Z,3.40
2019-01-17T05:09:22.763Z,3.40
2019-01-17T05:12:03.267Z,3.40
2019-01-17T05:14:34.147Z,3.40
2019-01-17T05:17:22.233Z,3.40
2019-01-17T05:20:04.103Z,3.40
2019-01-17T05:22:44.611Z,3.50
2019-01-17T05:25:28.702Z,3.40
2019-01-17T05:27:57.777Z,3.40
2019-01-17T05:30:46.024Z,3.30
2019-01-17T05:33:34.236Z,3.40
2019-01-17T05:36:18.431Z,3.40
2019-01-17T05:41:50.149Z,3.40
2019-01-17T05:47:22.213Z,3.40
2019-01-17T05:52:53.483Z,3.50
2019-01-17T05:58:23.024Z,3.50
2019-01-17T06:03:49.256Z,3.50
2019-01-17T06:06:33.165Z,3.50
2019-01-17T06:09:16.640Z,3.60
2019-01-17T06:11:58.617Z,3.60
2019-01-17T06:14:41.768Z,3.60
2019-01-17T06:17:22.843Z,3.70
2019-01-17T06:20:06.128Z,3.70
2019-01-17T06:22:47.639Z,3.60
2019-01-17T06:31:04.461Z,3.70
2019-01-17T06:33:59.101Z,3.70
2019-01-17T06:36:45.679Z,3.60
2019-01-17T06:42:24.711Z,3.70
2019-01-17T06:45:05.593Z,3.70
2019-01-17T06:47:47.467Z,3.70
2019-01-17T06:50:30.392Z,3.70
2019-01-17T06:56:28.697Z,3.60
2019-01-17T06:59:23.609Z,3.60
2019-01-17T07:02:11.858Z,3.50
2019-01-17T07:04:53.362Z,3.50
2019-01-17T07:10:39.444Z,3.60
2019-01-17T07:13:27.609Z,3.60
2019-01-17T07:16:35.024Z,3.70
2019-01-17T07:19:16.165Z,3.60
2019-01-17T07:21:59.169Z,3.60
2019-01-17T07:27:12.368Z,3.60
2019-01-17T07:33:08.868Z,3.50
2019-01-17T07:38:40.567Z,3.50
2019-01-17T07:41:21.820Z,3.50
2019-01-17T07:44:05.013Z,3.40
2019-01-17T07:49:30.598Z,3.40
2019-01-17T07:52:14.688Z,3.40
2019-01-17T07:54:55.827Z,3.30
2019-01-17T07:57:41.565Z,3.30
2019-01-17T08:00:24.082Z,3.30
2019-01-17T08:05:52.002Z,3.10
2019-01-17T08:08:35.035Z,3.30
2019-01-17T08:11:16.487Z,3.20
2019-01-17T08:16:44.217Z,3.20
2019-01-17T08:19:24.155Z,3.20
2019-01-17T08:21:55.572Z,3.20
2019-01-17T08:24:43.750Z,3.20
2019-01-17T08:27:27.344Z,3.20
2019-01-17T08:32:57.236Z,3.20
2019-01-17T08:35:26.925Z,3.30
2019-01-17T08:38:15.183Z,3.30
2019-01-17T08:41:03.503Z,3.40
2019-01-17T08:43:47.460Z,3.40
2019-01-17T08:49:16.476Z,3.20
2019-01-17T08:51:57.749Z,3.30
2019-01-17T08:54:39.631Z,3.40
2019-01-17T08:57:29.467Z,3.40
2019-01-17T09:00:13.828Z,3.40
2019-01-17T09:02:42.940Z,3.50
2019-01-17T09:05:11.995Z,3.50
2019-01-17T09:08:00.184Z,3.50
2019-01-17T09:13:48.387Z,3.50
2019-01-17T09:16:26.456Z,3.50
2019-01-17T09:21:59.069Z,3.60
2019-01-17T09:24:39.521Z,3.60
2019-01-17T09:27:24.251Z,3.60
2019-01-17T09:32:52.719Z,3.60
2019-01-17T09:38:06.478Z,3.60
2019-01-17T09:40:54.730Z,3.80
2019-01-17T09:43:38.324Z,3.70
2019-01-17T09:49:10.060Z,3.80
2019-01-17T09:51:50.488Z,3.90
2019-01-17T09:54:31.476Z,3.90
2019-01-17T09:57:31.571Z,3.90
2019-01-17T10:00:02.591Z,4.00
2019-01-17T10:02:43.273Z,4.30
2019-01-17T10:05:24.087Z,4.50
2019-01-17T10:08:05.036Z,4.50
2019-01-17T10:10:45.474Z,4.80
2019-01-17T10:13:31.893Z,4.90
2019-01-17T10:16:08.634Z,5.00
2019-01-17T10:18:49.217Z,5.10
2019-01-17T10:21:31.041Z,5.20
2019-01-17T10:27:02.793Z,5.40
2019-01-17T10:33:24.781Z,5.30
2019-01-17T10:36:06.048Z,5.00
2019-01-17T10:38:47.302Z,4.80
2019-01-17T10:41:40.575Z,4.70
2019-01-17T10:44:21.857Z,4.70
2019-01-17T10:47:07.687Z,4.70
2019-01-17T10:50:11.933Z,4.70
2019-01-17T10:53:19.282Z,4.50
2019-01-17T10:56:12.905Z,4.60
2019-01-17T10:59:20.322Z,4.60
2019-01-17T11:02:04.583Z,4.70
2019-01-17T11:04:55.974Z,4.60
2019-01-17T11:07:44.051Z,4.60
2019-01-17T11:10:50.390Z,4.50
2019-01-17T11:16:22.958Z,4.50
2019-01-17T11:19:03.866Z,4.40
2019-01-17T11:21:44.786Z,4.50
2019-01-17T11:24:32.600Z,4.30
2019-01-17T11:27:15.506Z,4.50
2019-01-17T11:29:58.692Z,4.50
2019-01-17T11:32:51.910Z,4.50
2019-01-17T11:39:08.015Z,4.40
2019-01-17T11:41:48.815Z,4.40
2019-01-17T11:44:30.271Z,4.30
2019-01-17T11:50:02.705Z,4.20
2019-01-17T11:53:10.098Z,4.20
2019-01-17T11:56:17.577Z,4.40
2019-01-17T11:59:12.081Z,4.60
2019-01-17T12:01:52.935Z,4.60
2019-01-17T12:07:13.146Z,4.60
2019-01-17T12:10:01.376Z,4.60
2019-01-17T12:12:42.209Z,4.80
2019-01-17T12:18:13.683Z,5.20
2019-01-17T12:23:30.585Z,5.60
2019-01-17T12:26:18.841Z,5.80
2019-01-17T12:28:48.045Z,5.70
2019-01-17T12:31:36.306Z,5.80
2019-01-17T12:34:24.565Z,5.90
2019-01-17T12:37:08.065Z,6.00
2019-01-17T12:42:40.662Z,6.30
2019-01-17T12:48:13.329Z,5.70
2019-01-17T12:50:57.434Z,5.80
2019-01-17T12:56:29.099Z,5.60
2019-01-17T13:01:57.049Z,5.30
2019-01-17T13:07:29.779Z,4.70
2019-01-17T13:12:55.211Z,4.10
2019-01-17T13:15:36.266Z,3.90
2019-01-17T13:18:16.800Z,3.90
2019-01-17T13:23:49.445Z,3.80
2019-01-17T13:26:18.517Z,3.80
2019-01-17T13:29:06.889Z,4.00
2019-01-17T13:31:55.048Z,4.00
2019-01-17T13:34:38.689Z,3.90
2019-01-17T13:40:11.255Z,3.80
2019-01-17T13:45:39.775Z,3.80
2019-01-17T13:48:21.022Z,3.80
2019-01-17T13:51:01.793Z,4.00
2019-01-17T13:53:43.151Z,4.00
2019-01-17T13:56:25.052Z,4.00
2019-01-17T13:59:06.180Z,4.00
2019-01-17T14:01:35.645Z,4.00
2019-01-17T14:04:24.045Z,3.80
2019-01-17T14:07:05.247Z,3.80
2019-01-17T14:12:37.822Z,3.90
2019-01-17T14:18:06.598Z,4.00
2019-01-17T14:20:47.208Z,3.80
2019-01-17T14:23:28.542Z,3.80
2019-01-17T14:29:00.611Z,3.60
2019-01-17T14:34:31.124Z,2.80
2019-01-17T14:37:00.180Z,2.90
2019-01-17T14:43:08.953Z,3.10
2019-01-17T14:45:49.459Z,3.30
2019-01-17T14:48:30.213Z,3.40
2019-01-17T14:51:13.882Z,3.40
2019-01-17T14:56:24.844Z,3.10
2019-01-17T14:59:13.051Z,3.10
2019-01-17T15:01:55.796Z,3.10
2019-01-17T15:04:37.258Z,3.00
2019-01-17T15:07:12.358Z,3.10
2019-01-17T15:10:04.140Z,3.10
2019-01-17T15:12:46.279Z,3.10
2019-01-17T15:15:27.690Z,3.10
2019-01-17T15:17:56.835Z,2.90
2019-01-17T15:20:45.071Z,2.80
2019-01-17T15:23:27.476Z,2.80
2019-01-17T15:28:51.184Z,2.90
2019-01-17T15:31:31.757Z,2.90
2019-01-17T15:34:12.356Z,2.80
2019-01-17T15:37:00.493Z,2.80
2019-01-17T15:39:41.424Z,2.80
2019-01-17T15:42:22.443Z,2.80
2019-01-17T15:45:07.464Z,2.70
2019-01-17T15:50:30.122Z,2.60
2019-01-17T15:53:12.223Z,2.50
2019-01-17T15:55:42.117Z,2.50
2019-01-17T15:58:30.286Z,2.40
2019-01-17T16:01:13.101Z,2.40
2019-01-17T16:06:41.967Z,2.50
2019-01-17T16:09:22.499Z,2.60
2019-01-17T16:11:51.584Z,2.50
2019-01-17T16:14:40.630Z,2.80
2019-01-17T16:17:21.905Z,2.50
2019-01-17T16:20:03.060Z,2.40
2019-01-17T16:22:43.728Z,2.30
2019-01-17T16:25:25.359Z,2.30
2019-01-17T16:28:06.691Z,2.00
2019-01-17T16:30:50.167Z,1.80
2019-01-17T16:33:33.683Z,1.80
2019-01-17T16:36:16.921Z,1.70
2019-01-17T16:38:58.626Z,1.70
2019-01-17T16:41:39.701Z,1.70
2019-01-17T16:47:29.002Z,1.70
2019-01-17T16:50:19.094Z,1.70
2019-01-17T16:52:49.345Z,1.70
2019-01-17T16:55:37.914Z,1.70
2019-01-17T16:58:19.222Z,1.70
2019-01-17T17:00:48.294Z,1.70
2019-01-17T17:03:36.665Z,1.70
2019-01-17T17:09:07.846Z,1.80
2019-01-17T17:11:49.650Z,1.70
2019-01-17T17:17:32.197Z,1.60
2019-01-17T17:20:13.182Z,1.60
2019-01-17T17:22:54.787Z,1.70
2019-01-17T17:25:38.805Z,1.70
2019-01-17T17:28:20.543Z,1.60
2019-01-17T17:30:59.803Z,1.80
2019-01-17T17:33:41.047Z,1.70
2019-01-17T17:36:24.271Z,1.70
2019-01-17T17:39:07.897Z,1.40
2019-01-17T17:41:54.650Z,1.30
2019-01-17T17:44:36.817Z,1.30
2019-01-17T17:50:09.628Z,1.40
2019-01-17T17:52:38.679Z,1.40
2019-01-17T17:55:26.986Z,1.40
2019-01-17T17:58:15.360Z,1.40
2019-01-17T18:00:59.059Z,1.30
2019-01-17T18:03:42.344Z,1.40
2019-01-17T18:06:23.557Z,1.40
2019-01-17T18:08:55.204Z,1.20
2019-01-17T18:11:39.169Z,1.30
2019-01-17T18:14:20.235Z,1.20
2019-01-17T18:17:00.727Z,1.20
2019-01-17T18:19:41.261Z,1.10
2019-01-17T18:22:20.547Z,1.20
2019-01-17T18:25:08.824Z,1.20
2019-01-17T18:27:53.063Z,1.20
2019-01-17T18:30:34.151Z,1.20
2019-01-17T18:33:03.174Z,1.20
2019-01-17T18:36:09.330Z,1.20
2019-01-17T18:38:36.960Z,1.10
2019-01-17T18:44:08.659Z,1.20
2019-01-17T18:46:49.185Z,1.10
2019-01-17T18:49:33.000Z,1.00
2019-01-17T18:52:13.513Z,0.00
2019-01-17T18:54:54.589Z,1.20
2019-01-17T18:57:34.985Z,1.10
2019-01-17T19:00:20.373Z,1.00
2019-01-17T19:03:01.655Z,1.00
2019-01-17T19:08:24.399Z,0.90
2019-01-17T19:11:06.127Z,1.00
2019-01-17T19:13:50.136Z,1.00
2019-01-17T19:16:20.426Z,1.00
2019-01-17T19:19:08.729Z,1.00
2019-01-17T19:21:56.978Z,1.00
2019-01-17T19:24:37.752Z,0.90
2019-01-17T19:30:01.190Z,0.90
2019-01-17T19:32:42.112Z,0.70
2019-01-17T19:35:22.875Z,0.60
2019-01-17T19:38:03.716Z,0.60
2019-01-17T19:40:44.378Z,0.50
2019-01-17T19:46:07.803Z,0.50
2019-01-17T19:48:48.344Z,0.40
2019-01-17T19:51:29.613Z,0.50
2019-01-17T19:56:53.617Z,0.40
2019-01-17T19:59:22.762Z,0.30
2019-01-17T20:02:11.099Z,0.40
2019-01-17T20:04:41.883Z,0.50
2019-01-17T20:10:10.334Z,0.40
2019-01-17T20:12:39.324Z,0.40
2019-01-17T20:15:27.609Z,0.50
2019-01-17T20:17:56.856Z,0.60
2019-01-17T20:20:45.150Z,0.60
2019-01-17T20:23:26.035Z,0.60
2019-01-17T20:26:10.348Z,0.60
2019-01-17T20:31:34.834Z,0.70
2019-01-17T20:37:06.803Z,0.10
2019-01-17T20:39:46.178Z,0.70
2019-01-17T20:42:30.069Z,0.60
2019-01-17T20:47:53.527Z,0.70
2019-01-17T20:50:34.456Z,0.70
2019-01-17T20:53:15.039Z,0.70
2019-01-17T20:58:42.291Z,0.70
2019-01-17T21:01:20.195Z,0.70
2019-01-17T21:04:01.456Z,0.60
2019-01-17T21:09:39.661Z,0.60
2019-01-17T21:12:08.883Z,0.50
2019-01-17T21:14:56.991Z,0.60
2019-01-17T21:20:55.648Z,0.60
2019-01-17T21:26:22.435Z,0.50
2019-01-17T21:28:41.333Z,0.60
2019-01-17T21:31:29.578Z,0.70
2019-01-17T21:34:10.821Z,0.50
2019-01-17T21:36:39.845Z,0.70
2019-01-17T21:39:28.069Z,0.60
2019-01-17T21:42:09.403Z,0.60
2019-01-17T21:44:38.378Z,0.50
2019-01-17T21:47:27.004Z,0.50
2019-01-17T21:50:16.421Z,0.50
2019-01-17T21:52:45.648Z,0.60
2019-01-17T21:55:14.750Z,0.50
2019-01-17T21:58:02.982Z,0.50
2019-01-17T22:00:51.250Z,0.50
2019-01-17T22:03:35.707Z,0.60
2019-01-17T22:06:16.659Z,0.50
2019-01-17T22:09:00.968Z,0.60
2019-01-17T22:11:41.522Z,0.50
2019-01-17T22:14:26.705Z,0.50
2019-01-17T22:17:07.834Z,0.50
2019-01-17T22:19:48.412Z,0.50
2019-01-17T22:22:29.178Z,0.40
2019-01-17T22:24:58.203Z,0.40
2019-01-17T22:27:47.018Z,0.40
2019-01-17T22:30:28.163Z,0.40
2019-01-17T22:33:08.940Z,0.20
2019-01-17T22:35:50.197Z,0.20
2019-01-17T22:38:30.913Z,0.30
2019-01-17T22:41:14.753Z,0.30
2019-01-17T22:43:56.351Z,0.20
2019-01-17T22:46:41.054Z,0.20
2019-01-17T22:49:25.278Z,0.20
2019-01-17T22:51:56.329Z,0.20
2019-01-17T22:54:45.843Z,0.40
2019-01-17T22:57:29.191Z,0.40
2019-01-17T22:59:58.295Z,0.30
2019-01-17T23:02:46.455Z,0.20
2019-01-17T23:05:34.606Z,0.10
2019-01-17T23:08:15.865Z,0.10
2019-01-17T23:13:45.287Z,0.00
2019-01-17T23:16:26.514Z,0.00
2019-01-17T23:18:55.551Z,0.00
2019-01-17T23:21:43.829Z,0.10
2019-01-17T23:24:28.097Z,-0.10
2019-01-17T23:29:59.756Z,-0.10
2019-01-17T23:32:40.916Z,-0.10
2019-01-17T23:35:25.010Z,-0.30
2019-01-17T23:38:04.330Z,-0.20
2019-01-17T23:40:34.866Z,-0.40
2019-01-17T23:46:35.059Z,-0.30
2019-01-17T23:49:17.729Z,-0.20
2019-01-17T23:52:02.413Z,-0.30
2019-01-17T23:54:43.087Z,-0.30
2019-01-17T23:57:23.931Z,-0.30
